sensor_id;sensor_type;location;lat;lon;timestamp;pressure;altitude;pressure_sealevel;temperature;humidity
61292;BME280;47165;42.664;23.368;2023-05-21T00:00:58;94879.81;;;17.12;63.40
61292;BME280;47165;42.664;23.368;2023-05-21T00:03:25;94877.00;;;17.04;64.10
61292;BME280;47165;42.664;23.368;2023-05-21T00:05:52;94880.41;;;17.16;63.28
61292;BME280;47165;42.664;23.368;2023-05-21T00:08:19;94876.53;;;17.20;63.00
61292;BME280;47165;42.664;23.368;2023-05-21T00:10:44;94880.69;;;17.13;63.24
61292;BME280;47165;42.664;23.368;2023-05-21T00:13:09;94880.28;;;17.17;63.08
61292;BME280;47165;42.664;23.368;2023-05-21T00:15:35;94874.44;;;17.14;63.49
61292;BME280;47165;42.664;23.368;2023-05-21T00:18:01;94868.19;;;17.15;63.29
61292;BME280;47165;42.664;23.368;2023-05-21T00:20:26;94864.41;;;17.07;63.87
61292;BME280;47165;42.664;23.368;2023-05-21T00:22:53;94865.22;;;17.08;63.68
61292;BME280;47165;42.664;23.368;2023-05-21T00:25:19;94868.97;;;17.05;63.69
61292;BME280;47165;42.664;23.368;2023-05-21T00:27:45;94868.97;;;17.05;63.90
61292;BME280;47165;42.664;23.368;2023-05-21T00:30:10;94858.41;;;17.05;63.83
61292;BME280;47165;42.664;23.368;2023-05-21T00:32:36;94862.75;;;17.06;63.69
61292;BME280;47165;42.664;23.368;2023-05-21T00:35:02;94869.25;;;17.02;63.88
61292;BME280;47165;42.664;23.368;2023-05-21T00:37:27;94865.19;;;16.98;64.22
61292;BME280;47165;42.664;23.368;2023-05-21T00:39:59;94862.47;;;16.88;64.32
61292;BME280;47165;42.664;23.368;2023-05-21T00:42:25;94861.50;;;16.89;64.17
61292;BME280;47165;42.664;23.368;2023-05-21T00:44:54;94854.25;;;16.82;64.38
61292;BME280;47165;42.664;23.368;2023-05-21T00:47:19;94859.25;;;16.85;64.42
61292;BME280;47165;42.664;23.368;2023-05-21T00:49:47;94863.31;;;16.89;64.45
61292;BME280;47165;42.664;23.368;2023-05-21T00:52:13;94858.78;;;16.80;64.34
61292;BME280;47165;42.664;23.368;2023-05-21T00:54:39;94857.50;;;16.74;64.45
61292;BME280;47165;42.664;23.368;2023-05-21T00:57:05;94859.44;;;16.72;64.38
61292;BME280;47165;42.664;23.368;2023-05-21T00:59:31;94852.66;;;16.58;64.45
61292;BME280;47165;42.664;23.368;2023-05-21T01:01:58;94845.03;;;16.55;64.57
61292;BME280;47165;42.664;23.368;2023-05-21T01:04:29;94857.94;;;16.58;64.77
61292;BME280;47165;42.664;23.368;2023-05-21T01:06:55;94853.75;;;16.56;65.34
61292;BME280;47165;42.664;23.368;2023-05-21T01:09:24;94850.03;;;16.58;66.47
61292;BME280;47165;42.664;23.368;2023-05-21T01:11:50;94849.59;;;16.53;66.98
61292;BME280;47165;42.664;23.368;2023-05-21T01:14:18;94857.81;;;16.60;67.28
61292;BME280;47165;42.664;23.368;2023-05-21T01:16:45;94833.78;;;16.53;67.51
61292;BME280;47165;42.664;23.368;2023-05-21T01:19:17;94845.03;;;16.55;66.84
61292;BME280;47165;42.664;23.368;2023-05-21T01:21:49;94837.81;;;16.57;66.82
61292;BME280;47165;42.664;23.368;2023-05-21T01:24:15;94839.59;;;16.57;66.49
61292;BME280;47165;42.664;23.368;2023-05-21T01:26:41;94842.59;;;16.63;66.02
61292;BME280;47165;42.664;23.368;2023-05-21T01:29:08;94834.47;;;16.55;66.51
61292;BME280;47165;42.664;23.368;2023-05-21T01:34:26;94836.22;;;16.66;66.79
61292;BME280;47165;42.664;23.368;2023-05-21T01:37:11;94833.47;;;16.67;66.29
61292;BME280;47165;42.664;23.368;2023-05-21T01:39:43;94829.25;;;16.65;66.42
61292;BME280;47165;42.664;23.368;2023-05-21T01:42:12;94829.84;;;16.68;66.54
61292;BME280;47165;42.664;23.368;2023-05-21T01:44:38;94828.44;;;16.64;66.44
61292;BME280;47165;42.664;23.368;2023-05-21T01:47:05;94835.63;;;16.62;66.36
61292;BME280;47165;42.664;23.368;2023-05-21T01:49:31;94834.91;;;16.60;66.95
61292;BME280;47165;42.664;23.368;2023-05-21T01:51:57;94840.06;;;16.62;66.89
61292;BME280;47165;42.664;23.368;2023-05-21T01:54:22;94834.22;;;16.58;66.53
61292;BME280;47165;42.664;23.368;2023-05-21T01:56:48;94826.09;;;16.50;66.91
61292;BME280;47165;42.664;23.368;2023-05-21T01:59:14;94824.69;;;16.46;67.03
61292;BME280;47165;42.664;23.368;2023-05-21T02:01:41;94833.00;;;16.62;66.52
61292;BME280;47165;42.664;23.368;2023-05-21T02:04:06;94826.38;;;16.68;66.53
61292;BME280;47165;42.664;23.368;2023-05-21T02:06:32;94827.84;;;16.61;66.79
61292;BME280;47165;42.664;23.368;2023-05-21T02:09:00;94834.22;;;16.58;67.18
61292;BME280;47165;42.664;23.368;2023-05-21T02:11:25;94828.22;;;16.56;67.64
61292;BME280;47165;42.664;23.368;2023-05-21T02:13:51;94814.41;;;16.43;66.90
61292;BME280;47165;42.664;23.368;2023-05-21T02:16:16;94824.09;;;16.42;67.38
61292;BME280;47165;42.664;23.368;2023-05-21T02:18:43;94817.75;;;16.45;67.44
61292;BME280;47165;42.664;23.368;2023-05-21T02:21:09;94823.03;;;16.45;66.93
61292;BME280;47165;42.664;23.368;2023-05-21T02:23:38;94825.97;;;16.31;67.75
61292;BME280;47165;42.664;23.368;2023-05-21T02:26:03;94821.44;;;16.21;68.74
61292;BME280;47165;42.664;23.368;2023-05-21T02:28:29;94819.28;;;16.26;68.38
61292;BME280;47165;42.664;23.368;2023-05-21T02:30:55;94820.22;;;16.25;68.31
61292;BME280;47165;42.664;23.368;2023-05-21T02:33:22;94815.59;;;16.18;67.07
61292;BME280;47165;42.664;23.368;2023-05-21T02:35:47;94811.91;;;16.09;67.51
61292;BME280;47165;42.664;23.368;2023-05-21T02:38:13;94819.09;;;16.07;67.67
61292;BME280;47165;42.664;23.368;2023-05-21T02:40:38;94819.38;;;16.04;67.62
61292;BME280;47165;42.664;23.368;2023-05-21T02:43:04;94822.47;;;16.09;68.34
61292;BME280;47165;42.664;23.368;2023-05-21T02:45:30;94801.56;;;15.85;66.73
61292;BME280;47165;42.664;23.368;2023-05-21T02:47:55;94815.13;;;15.69;69.13
61292;BME280;47165;42.664;23.368;2023-05-21T02:50:21;94816.72;;;15.49;70.67
61292;BME280;47165;42.664;23.368;2023-05-21T02:52:47;94805.38;;;15.48;71.49
61292;BME280;47165;42.664;23.368;2023-05-21T02:55:13;94815.41;;;15.55;70.73
61292;BME280;47165;42.664;23.368;2023-05-21T02:57:38;94813.00;;;15.63;70.56
61292;BME280;47165;42.664;23.368;2023-05-21T03:00:04;94808.28;;;15.66;69.71
61292;BME280;47165;42.664;23.368;2023-05-21T03:02:30;94806.91;;;15.74;69.40
61292;BME280;47165;42.664;23.368;2023-05-21T03:04:56;94811.53;;;15.81;68.92
61292;BME280;47165;42.664;23.368;2023-05-21T03:07:21;94804.84;;;15.66;69.47
61292;BME280;47165;42.664;23.368;2023-05-21T03:09:48;94811.53;;;15.70;69.56
61292;BME280;47165;42.664;23.368;2023-05-21T03:12:13;94819.44;;;15.81;69.05
61292;BME280;47165;42.664;23.368;2023-05-21T03:14:39;94813.31;;;15.81;68.64
61292;BME280;47165;42.664;23.368;2023-05-21T03:17:08;94815.25;;;15.79;68.33
61292;BME280;47165;42.664;23.368;2023-05-21T03:19:38;94816.34;;;15.76;68.96
61292;BME280;47165;42.664;23.368;2023-05-21T03:22:05;94817.88;;;15.79;69.00
61292;BME280;47165;42.664;23.368;2023-05-21T03:24:30;94821.84;;;15.62;69.78
61292;BME280;47165;42.664;23.368;2023-05-21T03:26:58;94826.16;;;15.74;69.51
61292;BME280;47165;42.664;23.368;2023-05-21T03:29:23;94827.34;;;15.81;69.43
61292;BME280;47165;42.664;23.368;2023-05-21T03:31:50;94824.34;;;15.86;68.97
61292;BME280;47165;42.664;23.368;2023-05-21T03:34:17;94823.63;;;15.84;69.31
61292;BME280;47165;42.664;23.368;2023-05-21T03:36:47;94823.25;;;15.88;69.02
61292;BME280;47165;42.664;23.368;2023-05-21T03:39:12;94826.31;;;16.05;68.88
61292;BME280;47165;42.664;23.368;2023-05-21T03:41:38;94818.19;;;15.97;68.83
61292;BME280;47165;42.664;23.368;2023-05-21T03:44:03;94824.38;;;16.07;68.68
61292;BME280;47165;42.664;23.368;2023-05-21T03:46:29;94823.66;;;16.05;68.60
61292;BME280;47165;42.664;23.368;2023-05-21T03:48:54;94830.34;;;16.09;68.57
61292;BME280;47165;42.664;23.368;2023-05-21T03:51:20;94823.63;;;16.16;68.44
61292;BME280;47165;42.664;23.368;2023-05-21T03:53:45;94820.28;;;16.14;68.94
61292;BME280;47165;42.664;23.368;2023-05-21T03:56:11;94810.97;;;16.10;68.93
61292;BME280;47165;42.664;23.368;2023-05-21T03:58:36;94819.44;;;16.14;68.84
61292;BME280;47165;42.664;23.368;2023-05-21T04:01:02;94821.13;;;16.15;69.26
61292;BME280;47165;42.664;23.368;2023-05-21T04:03:29;94815.34;;;15.88;69.82
61292;BME280;47165;42.664;23.368;2023-05-21T04:05:54;94812.97;;;15.85;70.05
61292;BME280;47165;42.664;23.368;2023-05-21T04:08:20;94822.28;;;15.89;70.29
61292;BME280;47165;42.664;23.368;2023-05-21T04:10:46;94828.72;;;15.97;70.33
61292;BME280;47165;42.664;23.368;2023-05-21T04:13:11;94817.94;;;16.00;70.52
61292;BME280;47165;42.664;23.368;2023-05-21T04:15:36;94822.31;;;15.78;70.98
61292;BME280;47165;42.664;23.368;2023-05-21T04:18:02;94806.91;;;15.74;71.26
61292;BME280;47165;42.664;23.368;2023-05-21T04:20:28;94816.22;;;15.78;71.26
61292;BME280;47165;42.664;23.368;2023-05-21T04:22:54;94830.63;;;15.95;71.39
61292;BME280;47165;42.664;23.368;2023-05-21T04:25:19;94817.97;;;15.88;71.78
61292;BME280;47165;42.664;23.368;2023-05-21T04:27:47;94807.22;;;15.80;72.05
61292;BME280;47165;42.664;23.368;2023-05-21T04:30:12;94812.31;;;15.93;71.47
61292;BME280;47165;42.664;23.368;2023-05-21T04:32:38;94818.28;;;16.06;70.99
61292;BME280;47165;42.664;23.368;2023-05-21T04:35:03;94817.16;;;16.20;70.49
61292;BME280;47165;42.664;23.368;2023-05-21T04:37:29;94819.03;;;16.29;70.27
61292;BME280;47165;42.664;23.368;2023-05-21T04:39:56;94821.16;;;16.36;70.81
61292;BME280;47165;42.664;23.368;2023-05-21T04:42:21;94809.38;;;16.40;70.82
61292;BME280;47165;42.664;23.368;2023-05-21T04:44:48;94828.31;;;16.45;70.63
61292;BME280;47165;42.664;23.368;2023-05-21T04:47:15;94825.53;;;16.46;70.73
61292;BME280;47165;42.664;23.368;2023-05-21T04:49:42;94823.47;;;16.50;70.64
61292;BME280;47165;42.664;23.368;2023-05-21T04:52:08;94824.38;;;16.60;70.36
61292;BME280;47165;42.664;23.368;2023-05-21T04:54:34;94827.09;;;16.70;69.71
61292;BME280;47165;42.664;23.368;2023-05-21T04:57:00;94820.47;;;16.76;69.61
61292;BME280;47165;42.664;23.368;2023-05-21T04:59:27;94816.38;;;16.83;69.30
61292;BME280;47165;42.664;23.368;2023-05-21T05:01:52;94825.44;;;16.90;69.15
61292;BME280;47165;42.664;23.368;2023-05-21T05:04:18;94821.19;;;16.99;68.68
61292;BME280;47165;42.664;23.368;2023-05-21T05:06:43;94823.69;;;17.00;68.64
61292;BME280;47165;42.664;23.368;2023-05-21T05:09:08;94825.66;;;17.08;68.81
61292;BME280;47165;42.664;23.368;2023-05-21T05:11:34;94826.69;;;17.17;68.76
61292;BME280;47165;42.664;23.368;2023-05-21T05:14:00;94812.78;;;17.15;68.32
61292;BME280;47165;42.664;23.368;2023-05-21T05:16:25;94824.66;;;17.30;67.85
61292;BME280;47165;42.664;23.368;2023-05-21T05:18:52;94821.13;;;16.89;68.74
61292;BME280;47165;42.664;23.368;2023-05-21T05:21:17;94817.72;;;16.98;68.35
61292;BME280;47165;42.664;23.368;2023-05-21T05:23:43;94827.63;;;17.16;67.85
61292;BME280;47165;42.664;23.368;2023-05-21T05:26:09;94816.72;;;16.99;68.98
61292;BME280;47165;42.664;23.368;2023-05-21T05:28:35;94824.34;;;17.23;67.99
61292;BME280;47165;42.664;23.368;2023-05-21T05:31:00;94820.19;;;17.30;67.18
61292;BME280;47165;42.664;23.368;2023-05-21T05:33:26;94824.97;;;17.46;67.21
61292;BME280;47165;42.664;23.368;2023-05-21T05:35:51;94819.34;;;17.61;67.00
61292;BME280;47165;42.664;23.368;2023-05-21T05:38:17;94820.19;;;17.71;67.03
61292;BME280;47165;42.664;23.368;2023-05-21T05:40:42;94824.94;;;17.77;66.93
61292;BME280;47165;42.664;23.368;2023-05-21T05:43:08;94820.09;;;17.82;66.69
61292;BME280;47165;42.664;23.368;2023-05-21T05:45:33;94818.88;;;17.86;66.42
61292;BME280;47165;42.664;23.368;2023-05-21T05:47:59;94824.31;;;17.95;65.10
61292;BME280;47165;42.664;23.368;2023-05-21T05:50:24;94817.34;;;17.94;65.11
61292;BME280;47165;42.664;23.368;2023-05-21T05:52:50;94817.34;;;17.94;64.82
61292;BME280;47165;42.664;23.368;2023-05-21T05:55:16;94821.28;;;18.09;65.24
61292;BME280;47165;42.664;23.368;2023-05-21T05:57:41;94807.06;;;18.10;65.27
61292;BME280;47165;42.664;23.368;2023-05-21T06:00:07;94816.13;;;18.07;64.44
61292;BME280;47165;42.664;23.368;2023-05-21T06:02:36;94825.72;;;18.18;64.50
61292;BME280;47165;42.664;23.368;2023-05-21T06:05:02;94809.31;;;18.24;64.95
61292;BME280;47165;42.664;23.368;2023-05-21T06:07:27;94814.34;;;18.27;63.04
61292;BME280;47165;42.664;23.368;2023-05-21T06:09:53;94806.53;;;18.36;62.63
61292;BME280;47165;42.664;23.368;2023-05-21T06:12:18;94805.00;;;18.43;61.30
61292;BME280;47165;42.664;23.368;2023-05-21T06:14:44;94807.78;;;18.51;61.39
61292;BME280;47165;42.664;23.368;2023-05-21T06:17:11;94807.06;;;18.59;60.98
61292;BME280;47165;42.664;23.368;2023-05-21T06:19:37;94798.84;;;18.62;60.63
61292;BME280;47165;42.664;23.368;2023-05-21T06:22:02;94807.06;;;18.68;60.82
61292;BME280;47165;42.664;23.368;2023-05-21T06:24:28;94795.91;;;18.75;60.05
61292;BME280;47165;42.664;23.368;2023-05-21T06:26:54;94796.06;;;18.83;59.69
61292;BME280;47165;42.664;23.368;2023-05-21T06:29:19;94800.63;;;18.90;58.97
61292;BME280;47165;42.664;23.368;2023-05-21T06:31:45;94796.88;;;18.93;58.68
61292;BME280;47165;42.664;23.368;2023-05-21T06:34:11;94788.38;;;18.99;58.76
61292;BME280;47165;42.664;23.368;2023-05-21T06:36:36;94792.41;;;19.03;57.96
61292;BME280;47165;42.664;23.368;2023-05-21T06:39:02;94782.50;;;19.05;57.43
61292;BME280;47165;42.664;23.368;2023-05-21T06:41:27;94787.75;;;19.15;57.42
61292;BME280;47165;42.664;23.368;2023-05-21T06:43:53;94780.78;;;19.14;56.40
61292;BME280;47165;42.664;23.368;2023-05-21T06:46:18;94769.63;;;19.20;55.46
61292;BME280;47165;42.664;23.368;2023-05-21T06:48:44;94781.84;;;19.31;57.44
61292;BME280;47165;42.664;23.368;2023-05-21T06:51:10;94784.44;;;19.41;57.50
61292;BME280;47165;42.664;23.368;2023-05-21T06:53:36;94769.25;;;19.43;58.11
61292;BME280;47165;42.664;23.368;2023-05-21T06:56:01;94781.06;;;19.48;59.07
61292;BME280;47165;42.664;23.368;2023-05-21T06:58:27;94766.72;;;19.41;55.28
61292;BME280;47165;42.664;23.368;2023-05-21T07:00:56;94783.50;;;19.60;57.25
61292;BME280;47165;42.664;23.368;2023-05-21T07:03:21;94780.16;;;19.58;55.47
61292;BME280;47165;42.664;23.368;2023-05-21T07:05:47;94776.78;;;19.65;53.96
61292;BME280;47165;42.664;23.368;2023-05-21T07:08:12;94772.34;;;19.38;53.08
61292;BME280;47165;42.664;23.368;2023-05-21T07:10:37;94769.28;;;19.61;54.06
61292;BME280;47165;42.664;23.368;2023-05-21T07:13:03;94771.03;;;19.70;53.73
61292;BME280;47165;42.664;23.368;2023-05-21T07:15:28;94761.19;;;19.62;52.52
61292;BME280;47165;42.664;23.368;2023-05-21T07:17:54;94767.13;;;19.74;52.19
61292;BME280;47165;42.664;23.368;2023-05-21T07:20:19;94769.66;;;19.76;52.32
61292;BME280;47165;42.664;23.368;2023-05-21T07:22:45;94773.81;;;19.78;51.99
61292;BME280;47165;42.664;23.368;2023-05-21T07:25:10;94764.56;;;19.82;52.28
61292;BME280;47165;42.664;23.368;2023-05-21T07:27:35;94775.56;;;19.87;52.11
61292;BME280;47165;42.664;23.368;2023-05-21T07:30:01;94775.16;;;19.82;50.89
61292;BME280;47165;42.664;23.368;2023-05-21T07:32:26;94780.09;;;19.95;51.77
61292;BME280;47165;42.664;23.368;2023-05-21T07:34:53;94766.16;;;19.93;51.02
61292;BME280;47165;42.664;23.368;2023-05-21T07:37:19;94778.72;;;19.91;50.16
61292;BME280;47165;42.664;23.368;2023-05-21T07:39:45;94771.88;;;19.98;51.25
61292;BME280;47165;42.664;23.368;2023-05-21T07:42:10;94770.34;;;20.14;52.07
61292;BME280;47165;42.664;23.368;2023-05-21T07:44:35;94775.28;;;20.26;51.80
61292;BME280;47165;42.664;23.368;2023-05-21T07:47:01;94763.00;;;20.25;49.76
61292;BME280;47165;42.664;23.368;2023-05-21T07:49:26;94772.59;;;20.44;50.46
61292;BME280;47165;42.664;23.368;2023-05-21T07:51:52;94757.75;;;20.52;48.87
61292;BME280;47165;42.664;23.368;2023-05-21T07:54:17;94762.53;;;20.66;48.90
61292;BME280;47165;42.664;23.368;2023-05-21T07:56:43;94766.25;;;20.81;49.31
61292;BME280;47165;42.664;23.368;2023-05-21T07:59:09;94751.41;;;20.88;46.82
61292;BME280;47165;42.664;23.368;2023-05-21T08:01:34;94767.75;;;20.76;46.32
61292;BME280;47165;42.664;23.368;2023-05-21T08:04:02;94763.66;;;20.63;46.12
61292;BME280;47165;42.664;23.368;2023-05-21T08:06:31;94753.84;;;20.82;45.15
61292;BME280;47165;42.664;23.368;2023-05-21T08:08:59;94758.53;;;20.88;42.39
61292;BME280;47165;42.664;23.368;2023-05-21T08:11:26;94749.69;;;21.14;40.61
61292;BME280;47165;42.664;23.368;2023-05-21T08:13:51;94760.44;;;21.38;41.22
61292;BME280;47165;42.664;23.368;2023-05-21T08:16:17;94750.31;;;21.34;41.08
61292;BME280;47165;42.664;23.368;2023-05-21T08:18:42;94754.41;;;21.62;40.13
61292;BME280;47165;42.664;23.368;2023-05-21T08:21:08;94760.00;;;22.02;40.42
61292;BME280;47165;42.664;23.368;2023-05-21T08:23:33;94761.50;;;22.21;39.85
61292;BME280;47165;42.664;23.368;2023-05-21T08:25:58;94753.25;;;22.40;38.30
61292;BME280;47165;42.664;23.368;2023-05-21T08:28:24;94734.47;;;22.58;37.84
61292;BME280;47165;42.664;23.368;2023-05-21T08:30:51;94739.13;;;22.64;37.68
61292;BME280;47165;42.664;23.368;2023-05-21T08:33:16;94753.09;;;22.50;36.58
61292;BME280;47165;42.664;23.368;2023-05-21T08:35:42;94754.44;;;22.46;36.55
61292;BME280;47165;42.664;23.368;2023-05-21T08:38:07;94756.75;;;22.41;36.42
61292;BME280;47165;42.664;23.368;2023-05-21T08:40:33;94767.38;;;22.49;37.27
61292;BME280;47165;42.664;23.368;2023-05-21T08:42:59;94762.06;;;22.24;37.65
61292;BME280;47165;42.664;23.368;2023-05-21T08:45:25;94757.41;;;22.43;38.08
61292;BME280;47165;42.664;23.368;2023-05-21T08:47:55;94755.38;;;22.78;36.94
61292;BME280;47165;42.664;23.368;2023-05-21T08:50:25;94750.41;;;22.91;36.50
61292;BME280;47165;42.664;23.368;2023-05-21T08:52:50;94748.72;;;22.90;36.09
61292;BME280;47165;42.664;23.368;2023-05-21T08:55:17;94754.81;;;23.23;37.48
61292;BME280;47165;42.664;23.368;2023-05-21T08:57:43;94755.56;;;22.68;36.69
61292;BME280;47165;42.664;23.368;2023-05-21T09:00:09;94754.84;;;22.99;37.30
61292;BME280;47165;42.664;23.368;2023-05-21T09:02:37;94756.69;;;23.15;36.27
61292;BME280;47165;42.664;23.368;2023-05-21T09:05:05;94746.03;;;22.98;37.78
61292;BME280;47165;42.664;23.368;2023-05-21T09:07:35;94762.72;;;22.59;37.40
61292;BME280;47165;42.664;23.368;2023-05-21T09:10:06;94762.72;;;22.35;37.94
61292;BME280;47165;42.664;23.368;2023-05-21T09:12:34;94762.41;;;22.46;37.39
61292;BME280;47165;42.664;23.368;2023-05-21T09:15:00;94759.41;;;22.65;37.28
61292;BME280;47165;42.664;23.368;2023-05-21T09:17:26;94756.88;;;22.64;35.73
61292;BME280;47165;42.664;23.368;2023-05-21T09:20:09;94763.53;;;22.84;35.90
61292;BME280;47165;42.664;23.368;2023-05-21T09:25:08;94749.81;;;23.28;37.74
61292;BME280;47165;42.664;23.368;2023-05-21T09:27:34;94763.34;;;23.58;37.71
61292;BME280;47165;42.664;23.368;2023-05-21T09:30:01;94758.63;;;23.68;38.18
61292;BME280;47165;42.664;23.368;2023-05-21T09:32:27;94763.75;;;23.86;37.32
61292;BME280;47165;42.664;23.368;2023-05-21T09:34:52;94769.13;;;23.78;34.96
61292;BME280;47165;42.664;23.368;2023-05-21T09:37:18;94768.34;;;24.01;38.01
61292;BME280;47165;42.664;23.368;2023-05-21T09:39:46;94760.28;;;24.09;35.88
61292;BME280;47165;42.664;23.368;2023-05-21T09:42:12;94748.09;;;24.15;34.81
61292;BME280;47165;42.664;23.368;2023-05-21T09:44:37;94744.28;;;24.09;33.85
61292;BME280;47165;42.664;23.368;2023-05-21T09:47:03;94748.91;;;24.15;36.43
61292;BME280;47165;42.664;23.368;2023-05-21T09:49:28;94743.56;;;24.15;35.01
61292;BME280;47165;42.664;23.368;2023-05-21T09:51:56;94746.41;;;23.90;34.06
61292;BME280;47165;42.664;23.368;2023-05-21T09:54:22;94737.25;;;24.16;34.50
61292;BME280;47165;42.664;23.368;2023-05-21T09:56:50;94744.34;;;24.24;37.23
61292;BME280;47165;42.664;23.368;2023-05-21T09:59:17;94736.41;;;24.39;33.55
61292;BME280;47165;42.664;23.368;2023-05-21T10:01:42;94731.97;;;24.54;34.07
61292;BME280;47165;42.664;23.368;2023-05-21T10:04:08;94741.00;;;24.53;35.11
61292;BME280;47165;42.664;23.368;2023-05-21T10:06:37;94737.41;;;24.61;33.01
61292;BME280;47165;42.664;23.368;2023-05-21T10:09:09;94725.09;;;24.75;33.05
61292;BME280;47165;42.664;23.368;2023-05-21T10:11:35;94731.50;;;24.50;31.27
61292;BME280;47165;42.664;23.368;2023-05-21T10:16:32;94723.00;;;25.00;34.12
61292;BME280;47165;42.664;23.368;2023-05-21T10:18:58;94732.06;;;25.14;35.97
61292;BME280;47165;42.664;23.368;2023-05-21T10:21:25;94725.72;;;25.15;33.62
61292;BME280;47165;42.664;23.368;2023-05-21T10:23:50;94723.13;;;25.06;30.96
61292;BME280;47165;42.664;23.368;2023-05-21T10:26:18;94724.69;;;25.16;33.83
61292;BME280;47165;42.664;23.368;2023-05-21T10:28:43;94716.75;;;25.07;31.79
61292;BME280;47165;42.664;23.368;2023-05-21T10:31:10;94717.00;;;25.21;32.25
61292;BME280;47165;42.664;23.368;2023-05-21T10:33:37;94716.59;;;25.24;33.13
61292;BME280;47165;42.664;23.368;2023-05-21T10:36:03;94710.03;;;25.12;32.47
61292;BME280;47165;42.664;23.368;2023-05-21T10:38:30;94717.41;;;25.09;33.79
61292;BME280;47165;42.664;23.368;2023-05-21T10:40:57;94706.06;;;25.07;34.91
61292;BME280;47165;42.664;23.368;2023-05-21T10:48:59;94713.19;;;25.45;31.79
61292;BME280;47165;42.664;23.368;2023-05-21T10:51:44;94714.34;;;25.57;32.37
61292;BME280;47165;42.664;23.368;2023-05-21T10:54:53;94716.84;;;25.59;33.44
61292;BME280;47165;42.664;23.368;2023-05-21T10:57:45;94715.84;;;25.60;33.32
61292;BME280;47165;42.664;23.368;2023-05-21T11:00:16;94706.66;;;25.47;33.43
61292;BME280;47165;42.664;23.368;2023-05-21T11:02:44;94710.16;;;25.33;32.31
61292;BME280;47165;42.664;23.368;2023-05-21T11:05:10;94705.63;;;25.19;33.83
61292;BME280;47165;42.664;23.368;2023-05-21T11:08:17;94714.75;;;25.09;34.79
61292;BME280;47165;42.664;23.368;2023-05-21T11:10:43;94712.78;;;24.88;34.59
61292;BME280;47165;42.664;23.368;2023-05-21T11:13:15;94695.91;;;24.73;34.21
61292;BME280;47165;42.664;23.368;2023-05-21T11:19:13;94699.59;;;24.57;34.54
61292;BME280;47165;42.664;23.368;2023-05-21T11:23:53;94685.88;;;24.75;36.27
61292;BME280;47165;42.664;23.368;2023-05-21T11:26:21;94692.72;;;24.93;35.76
61292;BME280;47165;42.664;23.368;2023-05-21T11:31:31;94687.06;;;24.73;30.95
61292;BME280;47165;42.664;23.368;2023-05-21T11:34:18;94690.78;;;24.72;34.15
61292;BME280;47165;42.664;23.368;2023-05-21T11:36:47;94691.38;;;24.59;34.71
61292;BME280;47165;42.664;23.368;2023-05-21T11:39:14;94682.50;;;24.43;33.88
61292;BME280;47165;42.664;23.368;2023-05-21T11:42:00;94686.88;;;24.36;36.15
61292;BME280;47165;42.664;23.368;2023-05-21T11:44:48;94691.19;;;24.22;35.64
61292;BME280;47165;42.664;23.368;2023-05-21T11:47:15;94688.91;;;24.11;37.41
61292;BME280;47165;42.664;23.368;2023-05-21T11:49:42;94688.31;;;24.01;36.82
61292;BME280;47165;42.664;23.368;2023-05-21T11:52:09;94686.53;;;23.93;35.67
61292;BME280;47165;42.664;23.368;2023-05-21T11:54:43;94686.09;;;23.89;35.44
61292;BME280;47165;42.664;23.368;2023-05-21T11:57:14;94681.41;;;23.52;35.13
61292;BME280;47165;42.664;23.368;2023-05-21T11:59:42;94682.72;;;23.56;35.98
61292;BME280;47165;42.664;23.368;2023-05-21T12:02:07;94683.75;;;23.55;36.21
61292;BME280;47165;42.664;23.368;2023-05-21T12:04:34;94690.28;;;23.53;35.25
61292;BME280;47165;42.664;23.368;2023-05-21T12:07:03;94684.81;;;23.38;36.36
61292;BME280;47165;42.664;23.368;2023-05-21T12:09:29;94674.91;;;23.23;36.37
61292;BME280;47165;42.664;23.368;2023-05-21T12:11:54;94673.13;;;23.16;37.33
61292;BME280;47165;42.664;23.368;2023-05-21T12:14:20;94666.81;;;23.08;37.36
61292;BME280;47165;42.664;23.368;2023-05-21T12:16:45;94670.97;;;22.95;36.92
61292;BME280;47165;42.664;23.368;2023-05-21T12:19:16;94674.13;;;22.98;37.21
61292;BME280;47165;42.664;23.368;2023-05-21T12:21:41;94669.38;;;22.77;38.24
61292;BME280;47165;42.664;23.368;2023-05-21T12:24:07;94666.78;;;22.03;38.62
61292;BME280;47165;42.664;23.368;2023-05-21T12:26:32;94674.44;;;22.31;38.84
61292;BME280;47165;42.664;23.368;2023-05-21T12:29:00;94670.94;;;22.39;38.22
61292;BME280;47165;42.664;23.368;2023-05-21T12:31:28;94678.25;;;22.53;38.58
61292;BME280;47165;42.664;23.368;2023-05-21T12:33:54;94666.25;;;22.57;39.22
61292;BME280;47165;42.664;23.368;2023-05-21T12:36:21;94660.78;;;22.59;39.49
61292;BME280;47165;42.664;23.368;2023-05-21T12:38:48;94659.59;;;22.61;39.34
61292;BME280;47165;42.664;23.368;2023-05-21T12:41:15;94656.13;;;22.53;38.39
61292;BME280;47165;42.664;23.368;2023-05-21T12:43:40;94655.44;;;22.59;39.11
61292;BME280;47165;42.664;23.368;2023-05-21T12:46:06;94661.31;;;22.46;38.97
61292;BME280;47165;42.664;23.368;2023-05-21T12:48:31;94655.63;;;22.49;38.67
61292;BME280;47165;42.664;23.368;2023-05-21T12:51:00;94652.63;;;22.60;39.36
61292;BME280;47165;42.664;23.368;2023-05-21T12:53:35;94649.97;;;22.60;39.75
61292;BME280;47165;42.664;23.368;2023-05-21T12:56:10;94657.59;;;22.63;39.07
61292;BME280;47165;42.664;23.368;2023-05-21T12:58:36;94654.13;;;22.55;40.31
61292;BME280;47165;42.664;23.368;2023-05-21T13:01:09;94662.91;;;22.63;40.51
61292;BME280;47165;42.664;23.368;2023-05-21T13:03:36;94656.63;;;22.56;40.29
61292;BME280;47165;42.664;23.368;2023-05-21T13:06:05;94659.59;;;22.61;40.29
61292;BME280;47165;42.664;23.368;2023-05-21T13:08:31;94642.47;;;22.56;38.77
61292;BME280;47165;42.664;23.368;2023-05-21T13:11:01;94653.28;;;22.62;38.84